Fair Seas — V7PD2 — position and weather

sailwx.info

Track history (hours):
 
Tides and Currents Weather Stations Pressure Air Temp Water Temp Dewpoint Dewpoint Depression Visibility Wind Speed Wind Dir Waves Ship Positions

Fair Seas

Last reported at 2017-Feb-02 19:31 UTC. Time now 2017-Feb-21 08:02 UTC.
Position N 02°06' E 102°07'.
Warning: this ship's position is 18 days out of date.

Length 250 m; draft 8 m.

Type: Ship (hazmat cat C). MMSI: 538003211.

Date/timePositionNaut miles runAvg speedWind from/ knotsBaromVisibWave heightAir tempDewpointWater temp
2017-Feb-02 19:31N 02°06' E 102°07'1212.1
2017-Feb-02 18:34N 01°58' E 102°15'1211.3
2017-Feb-02 17:30N 01°52' E 102°26'1110.7
2017-Feb-02 16:30N 01°49' E 102°36'1010.7
2017-Feb-02 15:33N 01°44' E 102°45'7011.2
2017-Feb-02 09:19N 01°09' E 103°45'7 9.4
2017-Feb-02 08:32N 01°12' E 103°52'3 1.0
2017-Feb-02 05:08N 01°15' E 103°54'0 0.0
2017-Feb-01 23:17N 01°15' E 103°54'0 0.0
2017-Feb-01 22:32N 01°15' E 103°54'0 0.0
2017-Feb-01 21:29N 01°15' E 103°54'0 0.1
2017-Feb-01 20:29N 01°15' E 103°54'0 0.0
2017-Feb-01 19:29N 01°15' E 103°54'0 0.0
2017-Feb-01 18:29N 01°15' E 103°54'0 0.4
2017-Feb-01 17:33N 01°15' E 103°54'7 7.0
2017-Feb-01 16:33N 01°14' E 103°47'6 0.1
2017-Jan-30 18:27N 01°15' E 103°41'4 3.9
2017-Jan-30 17:31N 01°16' E 103°45'8 8.7
2017-Jan-30 16:34N 01°14' E 103°53'0 0.4
2017-Jan-30 15:33N 01°14' E 103°53'0 0.0
2017-Jan-30 14:33N 01°14' E 103°53'0 0.0
2017-Jan-30 13:33N 01°14' E 103°53'0 0.0
2017-Jan-30 12:33N 01°14' E 103°53'0 0.2
2017-Jan-30 11:33N 01°14' E 103°53'1 0.9
2017-Jan-30 10:33N 01°15' E 103°53'5 5.1
2017-Jan-30 09:33N 01°16' E 103°58'6 5.5
2017-Jan-30 08:28N 01°16' E 104°04'  
Track history (hours):
 
Tides and Currents Weather Stations Pressure Air Temp Water Temp Dewpoint Dewpoint Depression Visibility Wind Speed Wind Dir Waves Ship Positions

Fair Seas

Last reported at 2017-Feb-02 19:31 UTC. Time now 2017-Feb-21 08:02 UTC.
Position N 02°06' E 102°07'.
Warning: this ship's position is 18 days out of date.

Length 250 m; draft 8 m.

Type: Ship (hazmat cat C). MMSI: 538003211.

Date/timePositionNaut miles runAvg speedWind from/ knotsBaromVisibWave heightAir tempDewpointWater temp
2017-Feb-02 19:31N 02°06' E 102°07'1212.1
2017-Feb-02 18:34N 01°58' E 102°15'1211.3
2017-Feb-02 17:30N 01°52' E 102°26'1110.7
2017-Feb-02 16:30N 01°49' E 102°36'1010.7
2017-Feb-02 15:33N 01°44' E 102°45'7011.2
2017-Feb-02 09:19N 01°09' E 103°45'7 9.4
2017-Feb-02 08:32N 01°12' E 103°52'3 1.0
2017-Feb-02 05:08N 01°15' E 103°54'0 0.0
2017-Feb-01 23:17N 01°15' E 103°54'0 0.0
2017-Feb-01 22:32N 01°15' E 103°54'0 0.0
2017-Feb-01 21:29N 01°15' E 103°54'0 0.1
2017-Feb-01 20:29N 01°15' E 103°54'0 0.0
2017-Feb-01 19:29N 01°15' E 103°54'0 0.0
2017-Feb-01 18:29N 01°15' E 103°54'0 0.4
2017-Feb-01 17:33N 01°15' E 103°54'7 7.0
2017-Feb-01 16:33N 01°14' E 103°47'6 0.1
2017-Jan-30 18:27N 01°15' E 103°41'4 3.9
2017-Jan-30 17:31N 01°16' E 103°45'8 8.7
2017-Jan-30 16:34N 01°14' E 103°53'0 0.4
2017-Jan-30 15:33N 01°14' E 103°53'0 0.0
2017-Jan-30 14:33N 01°14' E 103°53'0 0.0
2017-Jan-30 13:33N 01°14' E 103°53'0 0.0
2017-Jan-30 12:33N 01°14' E 103°53'0 0.2
2017-Jan-30 11:33N 01°14' E 103°53'1 0.9
2017-Jan-30 10:33N 01°15' E 103°53'5 5.1
2017-Jan-30 09:33N 01°16' E 103°58'6 5.5
2017-Jan-30 08:28N 01°16' E 104°04'  

Dump ship's entire track history